Time;durP1;ratioP1;P1;durP2;ratioP2;P2;SDS_P1;SDS_P2;PMS_P1;PMS_P2;Temp;Humidity;BMP_temperature;BMP_pressure;BME280_temperature;BME280_humidity;BME280_pressure;Samples;Min_cycle;Max_cycle;Signal;HPM_P1;HPM_P2
2021/06/02 00:03:47;;;;;;;10.13;6.03;;;14.30;99.90;;;;;;5079217;28;20837;-53
2021/06/02 00:06:13;;;;;;;10.60;6.45;;;14.30;99.90;;;;;;5088940;28;20659;-52
2021/06/02 00:08:38;;;;;;;10.85;6.55;;;14.30;99.90;;;;;;5073828;28;20932;-52
2021/06/02 00:11:07;;;;;;;10.30;6.30;;;14.30;99.90;;;;;;5070567;28;20384;-52
2021/06/02 00:13:36;;;;;;;9.35;6.15;;;14.20;99.90;;;;;;5069564;28;20407;-52
2021/06/02 00:16:02;;;;;;;10.23;6.07;;;14.20;99.90;;;;;;5070438;28;20380;-52
2021/06/02 00:18:28;;;;;;;11.63;6.72;;;14.20;99.90;;;;;;5083805;28;20389;-52
2021/06/02 00:20:54;;;;;;;14.25;6.82;;;14.10;99.90;;;;;;5089979;28;20390;-52
2021/06/02 00:23:21;;;;;;;8.88;6.03;;;14.00;99.90;;;;;;5089881;28;20884;-52
2021/06/02 00:25:48;;;;;;;11.07;6.20;;;13.90;99.90;;;;;;5088926;28;20390;-52
2021/06/02 00:28:15;;;;;;;11.77;6.63;;;13.90;99.90;;;;;;5075829;28;20380;-52
2021/06/02 00:30:43;;;;;;;11.52;6.40;;;13.90;99.90;;;;;;5076593;28;20431;-53
2021/06/02 00:33:10;;;;;;;10.65;6.13;;;13.90;99.90;;;;;;5090078;28;20509;-51
2021/06/02 00:35:37;;;;;;;13.02;7.03;;;13.80;99.90;;;;;;5089124;28;20374;-52
2021/06/02 00:38:03;;;;;;;13.07;6.80;;;13.80;99.90;;;;;;5082378;28;20873;-52
2021/06/02 00:40:55;;;;;;;14.55;7.50;;;13.70;99.90;;;;;;5069431;28;20387;-54
2021/06/02 00:43:21;;;;;;;12.50;6.70;;;13.60;99.90;;;;;;5065729;28;20432;-52
2021/06/02 00:45:47;;;;;;;10.80;6.80;;;13.60;99.90;;;;;;5068859;28;20376;-52
2021/06/02 00:48:16;;;;;;;12.93;7.10;;;13.70;99.90;;;;;;5061924;28;20850;-52
2021/06/02 00:50:47;;;;;;;10.77;6.97;;;13.60;99.90;;;;;;5071395;28;20416;-52
2021/06/02 00:53:13;;;;;;;13.73;7.95;;;13.60;99.90;;;;;;5073847;28;20443;-52
2021/06/02 00:55:42;;;;;;;10.48;7.13;;;13.60;99.90;;;;;;5073589;28;21515;-52
2021/06/02 00:58:24;;;;;;;10.57;7.13;;;13.40;99.90;;;;;;5078870;28;20392;-52
2021/06/02 01:00:50;;;;;;;11.77;6.63;;;13.40;99.90;;;;;;5076468;28;20387;-53
2021/06/02 01:03:22;;;;;;;11.10;7.07;;;13.20;99.90;;;;;;5077291;28;20399;-52
2021/06/02 01:05:49;;;;;;;11.57;7.45;;;13.00;99.90;;;;;;5086378;28;20769;-52
2021/06/02 01:08:20;;;;;;;11.40;8.00;;;12.60;99.90;;;;;;5080467;28;20395;-52
2021/06/02 01:10:46;;;;;;;11.23;7.90;;;12.10;99.90;;;;;;5068776;28;20395;-55
2021/06/02 01:13:14;;;;;;;13.32;7.93;;;12.00;99.90;;;;;;5069465;28;20411;-52
2021/06/02 01:15:40;;;;;;;13.77;7.80;;;12.00;99.90;;;;;;5079932;28;20442;-52
2021/06/02 01:18:09;;;;;;;12.93;7.78;;;12.00;99.90;;;;;;5089642;28;20387;-55
2021/06/02 01:20:37;;;;;;;13.20;8.00;;;12.00;99.90;;;;;;5088955;28;20421;-52
2021/06/02 01:23:05;;;;;;;12.48;7.75;;;12.20;99.90;;;;;;5068388;28;20489;-52
2021/06/02 01:25:30;;;;;;;12.70;7.57;;;12.30;99.90;;;;;;5081015;28;20383;-52
2021/06/02 01:27:56;;;;;;;11.48;7.50;;;12.40;99.90;;;;;;5081971;28;20450;-54
2021/06/02 01:30:23;;;;;;;11.70;7.23;;;12.40;99.90;;;;;;5078147;28;20911;-52
2021/06/02 01:33:13;;;;;;;13.32;7.80;;;12.40;99.90;;;;;;5073784;28;20474;-55
2021/06/02 01:36:04;;;;;;;12.43;7.53;;;12.50;99.90;;;;;;5068294;28;20387;-52
2021/06/02 01:39:07;;;;;;;12.32;8.10;;;12.50;99.90;;;;;;5071173;28;20391;-53
2021/06/02 01:41:41;;;;;;;12.90;7.80;;;12.50;99.90;;;;;;5072611;28;20869;-52
2021/06/02 01:44:41;;;;;;;13.07;7.72;;;12.40;99.90;;;;;;5073617;28;20396;-52
2021/06/02 01:47:21;;;;;;;12.15;7.60;;;12.40;99.90;;;;;;5079850;28;20460;-52
2021/06/02 01:50:11;;;;;;;11.10;7.43;;;12.30;99.90;;;;;;5092839;28;20393;-52
2021/06/02 01:53:05;;;;;;;13.32;7.93;;;12.20;99.90;;;;;;5092493;28;20422;-52
2021/06/02 01:56:09;;;;;;;12.80;8.35;;;11.90;99.90;;;;;;5092422;28;20447;-52
2021/06/02 01:59:14;;;;;;;13.90;8.53;;;11.80;99.90;;;;;;5092077;28;20382;-53
2021/06/02 02:01:59;;;;;;;13.95;8.30;;;11.60;99.90;;;;;;5063502;28;20381;-52
2021/06/02 02:04:43;;;;;;;12.63;8.30;;;11.50;99.90;;;;;;5076702;28;20478;-58
2021/06/02 02:07:24;;;;;;;13.83;8.13;;;11.50;99.90;;;;;;5054965;28;20403;-52
2021/06/02 02:10:04;;;;;;;11.93;7.88;;;11.40;99.90;;;;;;5072697;28;20483;-52
2021/06/02 02:12:36;;;;;;;11.63;7.82;;;11.50;99.90;;;;;;5071281;28;20401;-52
2021/06/02 02:15:29;;;;;;;12.85;7.35;;;11.50;99.90;;;;;;5092953;28;20409;-52
2021/06/02 02:18:17;;;;;;;13.20;8.40;;;11.30;99.90;;;;;;5092826;28;20448;-51
2021/06/02 02:21:27;;;;;;;11.65;7.80;;;11.30;99.90;;;;;;5076337;28;20388;-51
2021/06/02 02:24:07;;;;;;;12.68;8.43;;;11.40;99.90;;;;;;5072567;28;20392;-51
2021/06/02 02:26:46;;;;;;;16.88;9.20;;;11.40;99.90;;;;;;5071894;28;20380;-51
2021/06/02 02:29:30;;;;;;;12.83;8.80;;;11.40;99.90;;;;;;5079646;28;20378;-51
2021/06/02 02:32:35;;;;;;;14.18;7.78;;;11.40;99.90;;;;;;5082631;28;20384;-51
2021/06/02 02:35:04;;;;;;;16.83;8.85;;;11.50;99.90;;;;;;5027487;28;20423;-51
2021/06/02 02:37:44;;;;;;;14.10;8.48;;;11.50;99.90;;;;;;5071529;28;20398;-52
2021/06/02 02:40:17;;;;;;;15.73;8.23;;;11.40;99.90;;;;;;5071984;28;20383;-51
2021/06/02 02:42:46;;;;;;;11.95;8.20;;;11.40;99.90;;;;;;5071696;28;20383;-51
2021/06/02 02:45:38;;;;;;;19.35;8.07;;;11.30;99.90;;;;;;5072543;28;20502;-51
2021/06/02 02:48:26;;;;;;;15.50;9.13;;;11.40;99.90;;;;;;5070988;28;20410;-51
2021/06/02 02:51:14;;;;;;;13.20;8.23;;;11.40;99.90;;;;;;5070832;28;20482;-52
2021/06/02 02:53:49;;;;;;;13.70;8.57;;;11.20;99.90;;;;;;5071084;28;20416;-51
2021/06/02 02:56:37;;;;;;;16.42;8.80;;;11.20;99.90;;;;;;5071946;28;20410;-51
2021/06/02 02:59:18;;;;;;;14.13;8.63;;;11.10;99.90;;;;;;5071871;28;20380;-51
2021/06/02 03:02:25;;;;;;;13.30;9.32;;;10.90;99.90;;;;;;5071489;28;20388;-52
2021/06/02 03:04:55;;;;;;;14.30;8.25;;;10.80;99.90;;;;;;5066164;28;20422;-51
2021/06/02 03:07:22;;;;;;;12.50;8.65;;;10.80;99.90;;;;;;5037597;28;20888;-51
2021/06/02 03:10:02;;;;;;;13.35;8.40;;;10.80;99.90;;;;;;5071054;28;20367;-51
2021/06/02 03:12:55;;;;;;;14.85;7.97;;;10.80;99.90;;;;;;5071153;28;20375;-58
2021/06/02 03:15:44;;;;;;;11.90;7.90;;;10.90;99.90;;;;;;5085325;28;20428;-51
2021/06/02 03:18:23;;;;;;;13.27;8.40;;;10.90;99.90;;;;;;5092122;28;20771;-51
2021/06/02 03:21:19;;;;;;;14.65;8.25;;;10.80;99.90;;;;;;5090961;28;20481;-52
2021/06/02 03:23:58;;;;;;;10.85;7.30;;;10.80;99.90;;;;;;5075968;28;20876;-51
2021/06/02 03:26:34;;;;;;;11.53;7.60;;;10.80;99.90;;;;;;5053709;28;20399;-51
2021/06/02 03:29:14;;;;;;;15.93;8.00;;;10.80;99.90;;;;;;5071216;28;20818;-51
2021/06/02 03:32:13;;;;;;;13.40;7.50;;;10.80;99.90;;;;;;5079572;28;20414;-51
2021/06/02 03:35:07;;;;;;;13.85;8.50;;;10.70;99.90;;;;;;5090914;28;20402;-50
2021/06/02 03:37:52;;;;;;;13.43;7.78;;;10.70;99.90;;;;;;5091161;28;20864;-51
2021/06/02 03:40:30;;;;;;;11.93;8.05;;;10.60;99.90;;;;;;5072703;28;20445;-51
2021/06/02 03:43:17;;;;;;;12.50;7.90;;;10.50;99.90;;;;;;5071284;28;20450;-51
2021/06/02 03:45:42;;;;;;;13.77;8.00;;;10.40;99.90;;;;;;5070505;28;20368;-51
2021/06/02 03:48:35;;;;;;;13.23;7.65;;;10.40;99.90;;;;;;5070994;28;20438;-51
2021/06/02 03:51:01;;;;;;;10.80;7.27;;;10.50;99.90;;;;;;5070518;28;20895;-51
2021/06/02 03:53:51;;;;;;;11.27;8.05;;;10.50;99.90;;;;;;5085631;28;20425;-57
2021/06/02 03:57:04;;;;;;;13.75;8.30;;;10.60;99.90;;;;;;5091183;28;20435;-51
2021/06/02 03:59:48;;;;;;;13.77;7.70;;;10.70;99.90;;;;;;5081036;28;20397;-58
2021/06/02 04:02:32;;;;;;;12.65;8.20;;;10.80;99.90;;;;;;5090597;28;20416;-51
2021/06/02 04:05:24;;;;;;;12.35;8.50;;;10.90;99.90;;;;;;5071637;28;20773;-51
2021/06/02 04:08:15;;;;;;;12.05;7.93;;;10.90;99.90;;;;;;5064696;28;20469;-52
2021/06/02 04:10:55;;;;;;;15.05;8.00;;;11.00;99.90;;;;;;5069766;28;20419;-51
2021/06/02 04:13:55;;;;;;;14.38;8.77;;;11.10;99.90;;;;;;5070401;28;20394;-52
2021/06/02 04:16:27;;;;;;;11.75;8.00;;;11.20;99.90;;;;;;5023305;28;20535;-52
2021/06/02 04:18:54;;;;;;;15.27;9.20;;;11.30;99.90;;;;;;5084074;28;20867;-51
2021/06/02 04:21:23;;;;;;;16.00;8.67;;;11.40;99.90;;;;;;5078705;28;20476;-51
2021/06/02 04:23:49;;;;;;;15.05;8.50;;;11.30;99.90;;;;;;5082349;28;21075;-52
2021/06/02 04:26:15;;;;;;;12.35;8.40;;;11.50;99.90;;;;;;5052379;28;20382;-51
2021/06/02 04:28:42;;;;;;;12.82;8.50;;;11.60;99.90;;;;;;5069577;28;20376;-51
2021/06/02 04:31:13;;;;;;;12.50;8.13;;;11.70;99.90;;;;;;5083445;28;20385;-53
2021/06/02 04:33:42;;;;;;;13.63;8.68;;;11.70;99.90;;;;;;5089024;28;20401;-53
2021/06/02 04:36:10;;;;;;;15.20;9.10;;;11.90;99.90;;;;;;5090231;28;20378;-53
2021/06/02 04:38:36;;;;;;;10.98;8.35;;;12.00;99.90;;;;;;5089669;28;20378;-52
2021/06/02 04:41:04;;;;;;;13.67;8.80;;;12.00;99.90;;;;;;5071848;28;20437;-53
2021/06/02 04:43:39;;;;;;;11.60;7.85;;;12.20;99.90;;;;;;5069693;28;20387;-58
2021/06/02 04:46:07;;;;;;;13.88;8.35;;;12.30;99.90;;;;;;5076141;28;20378;-57
2021/06/02 04:48:34;;;;;;;11.45;8.18;;;12.50;99.90;;;;;;5089162;28;20397;-52
2021/06/02 04:51:10;;;;;;;14.38;8.60;;;12.70;99.90;;;;;;5090044;28;20409;-52
2021/06/02 04:54:13;;;;;;;12.43;8.25;;;13.20;99.90;;;;;;5089249;28;20405;-53
2021/06/02 04:56:51;;;;;;;11.20;7.88;;;14.30;99.90;;;;;;5088974;28;20412;-52
2021/06/02 04:59:32;;;;;;;13.60;7.20;;;16.40;99.90;;;;;;5072424;28;20390;-52
2021/06/02 05:02:13;;;;;;;10.73;7.70;;;18.30;99.90;;;;;;5069588;28;20470;-51
2021/06/02 05:05:03;;;;;;;13.05;7.70;;;20.00;99.90;;;;;;5068712;28;20379;-51
2021/06/02 05:07:52;;;;;;;11.60;7.30;;;22.10;97.30;;;;;;5078482;28;20393;-59
2021/06/02 05:10:45;;;;;;;11.25;7.20;;;23.60;91.10;;;;;;5089924;28;20409;-54
2021/06/02 05:13:42;;;;;;;14.17;8.57;;;24.20;82.70;;;;;;5050690;28;20475;-53
2021/06/02 05:16:35;;;;;;;14.32;7.90;;;24.40;80.60;;;;;;5075195;28;20476;-57
2021/06/02 05:19:48;;;;;;;12.10;7.97;;;24.80;77.90;;;;;;5069573;28;20401;-56
2021/06/02 05:22:20;;;;;;;10.27;7.32;;;25.60;72.60;;;;;;5071888;28;20392;-56
2021/06/02 05:25:20;;;;;;;10.77;7.22;;;26.50;69.00;;;;;;5072550;28;20893;-57
2021/06/02 05:28:23;;;;;;;13.85;8.38;;;26.50;66.20;;;;;;5040347;28;20408;-59
2021/06/02 05:30:58;;;;;;;11.48;7.30;;;25.90;67.70;;;;;;5060480;28;20471;-57
2021/06/02 05:33:38;;;;;;;12.93;8.03;;;25.60;68.70;;;;;;5061800;28;20400;-58
2021/06/02 05:36:39;;;;;;;9.73;7.03;;;26.30;66.90;;;;;;5062319;28;20747;-58
2021/06/02 05:39:05;;;;;;;11.88;6.80;;;26.20;65.60;;;;;;5061407;28;20796;-57
2021/06/02 05:41:42;;;;;;;11.40;7.07;;;26.70;64.60;;;;;;5076972;28;20374;-66
2021/06/02 05:44:20;;;;;;;10.38;7.10;;;27.30;63.10;;;;;;5075293;28;20873;-57
2021/06/02 05:47:23;;;;;;;11.10;7.30;;;27.60;62.40;;;;;;5072077;28;20479;-54
2021/06/02 05:50:13;;;;;;;10.93;6.68;;;27.50;59.40;;;;;;5076306;28;20376;-55
2021/06/02 05:53:29;;;;;;;12.80;5.95;;;27.60;58.70;;;;;;5068261;28;20509;-55
2021/06/02 05:56:11;;;;;;;8.25;5.28;;;28.90;55.40;;;;;;5045646;28;20942;-55
2021/06/02 05:58:42;;;;;;;10.60;5.65;;;28.70;53.50;;;;;;5073992;28;20467;-55
2021/06/02 06:01:10;;;;;;;8.88;4.90;;;28.00;54.20;;;;;;5076760;28;20438;-55
2021/06/02 06:03:54;;;;;;;8.57;5.32;;;28.60;54.40;;;;;;5076624;28;20380;-58
2021/06/02 06:06:29;;;;;;;10.88;4.80;;;28.70;52.40;;;;;;5077319;28;20378;-55
2021/06/02 06:09:30;;;;;;;7.82;4.93;;;29.10;49.00;;;;;;5075233;28;20479;-55
2021/06/02 06:12:40;;;;;;;9.17;5.40;;;29.40;49.10;;;;;;5036599;28;20461;-54
2021/06/02 06:15:24;;;;;;;9.80;4.75;;;28.90;49.40;;;;;;5019744;28;20464;-55
2021/06/02 06:18:12;;;;;;;7.82;4.45;;;28.30;48.50;;;;;;5074127;28;21046;-55
2021/06/02 06:21:04;;;;;;;10.60;5.10;;;27.80;48.90;;;;;;5074581;28;20422;-59
2021/06/02 06:23:36;;;;;;;10.35;4.80;;;27.90;48.30;;;;;;5077469;28;20420;-68
2021/06/02 06:26:30;;;;;;;8.33;4.77;;;28.40;48.80;;;;;;5080844;28;20378;-56
2021/06/02 06:29:15;;;;;;;8.98;4.80;;;29.00;48.70;;;;;;5079418;28;20386;-56
2021/06/02 06:31:44;;;;;;;9.45;4.85;;;30.40;45.30;;;;;;5087470;28;20386;-56
2021/06/02 06:34:19;;;;;;;8.38;4.40;;;30.10;44.60;;;;;;5075501;28;20413;-56
2021/06/02 06:36:49;;;;;;;9.20;4.72;;;29.70;45.00;;;;;;5064588;28;20392;-56
2021/06/02 06:39:45;;;;;;;10.70;5.10;;;29.80;44.70;;;;;;5084535;28;20869;-56
2021/06/02 06:42:15;;;;;;;9.55;4.50;;;30.10;45.60;;;;;;5058629;28;20886;-56
2021/06/02 06:44:44;;;;;;;7.77;4.80;;;30.00;44.40;;;;;;5079521;28;20865;-57
2021/06/02 06:47:13;;;;;;;10.10;5.13;;;29.60;44.40;;;;;;5066835;28;20397;-56
2021/06/02 06:49:40;;;;;;;9.07;4.80;;;28.90;44.70;;;;;;5074681;28;20518;-57
2021/06/02 06:52:06;;;;;;;11.40;5.20;;;28.50;46.20;;;;;;5088248;28;20457;-55
2021/06/02 06:54:32;;;;;;;12.75;5.00;;;28.60;44.90;;;;;;5059869;28;20417;-72
2021/06/02 06:56:59;;;;;;;12.00;5.20;;;28.50;45.80;;;;;;5080826;28;20433;-67
2021/06/02 06:59:25;;;;;;;9.35;4.95;;;28.60;45.70;;;;;;5077811;28;20395;-56
2021/06/02 07:01:51;;;;;;;7.45;4.80;;;29.00;45.00;;;;;;5074514;28;20392;-55
2021/06/02 07:04:18;;;;;;;9.43;5.40;;;29.30;44.60;;;;;;5087643;28;20439;-62
2021/06/02 07:06:44;;;;;;;9.13;5.10;;;29.20;44.20;;;;;;5082089;28;20437;-56
2021/06/02 07:09:10;;;;;;;8.73;4.45;;;29.60;42.80;;;;;;5083857;28;20425;-55
2021/06/02 07:11:41;;;;;;;9.07;4.70;;;29.00;43.10;;;;;;5074647;28;20399;-66
2021/06/02 07:14:10;;;;;;;9.85;4.60;;;29.10;43.80;;;;;;5074478;28;20406;-57
2021/06/02 07:16:37;;;;;;;9.75;4.80;;;28.90;43.40;;;;;;5082823;28;20388;-57
2021/06/02 07:19:07;;;;;;;8.95;4.20;;;28.30;44.90;;;;;;5073640;28;20388;-56
2021/06/02 07:21:35;;;;;;;10.80;4.30;;;28.50;45.20;;;;;;5085813;28;20420;-71
2021/06/02 07:24:02;;;;;;;9.07;3.60;;;28.70;44.00;;;;;;5074022;28;20395;-57
2021/06/02 07:26:28;;;;;;;8.53;4.00;;;29.00;44.50;;;;;;5084524;28;20376;-57
2021/06/02 07:28:55;;;;;;;9.10;3.80;;;29.50;43.80;;;;;;5080062;28;20447;-56
2021/06/02 07:31:21;;;;;;;8.20;4.10;;;30.20;42.40;;;;;;5076881;28;20845;-57
2021/06/02 07:33:47;;;;;;;7.80;3.20;;;30.00;41.40;;;;;;5083195;28;20408;-57
2021/06/02 07:36:13;;;;;;;6.60;3.75;;;30.30;41.40;;;;;;5078709;28;20392;-57
2021/06/02 07:38:40;;;;;;;7.43;4.10;;;30.60;41.90;;;;;;5075746;28;20372;-59
2021/06/02 07:41:06;;;;;;;7.30;3.67;;;30.90;40.80;;;;;;5074136;28;20393;-57
2021/06/02 07:43:32;;;;;;;7.55;3.45;;;30.90;40.10;;;;;;5077715;28;20391;-70
2021/06/02 07:45:58;;;;;;;8.23;3.92;;;31.40;40.50;;;;;;5079678;28;20378;-59
2021/06/02 07:48:23;;;;;;;7.40;3.60;;;31.20;40.20;;;;;;5088531;28;20394;-57
2021/06/02 07:50:49;;;;;;;6.72;3.50;;;31.70;40.00;;;;;;5072488;28;20402;-57
2021/06/02 07:53:15;;;;;;;9.25;4.28;;;31.90;39.60;;;;;;5084993;28;20949;-57
2021/06/02 07:55:40;;;;;;;8.52;3.65;;;32.10;39.10;;;;;;5077853;28;20871;-57
2021/06/02 07:58:06;;;;;;;10.23;3.53;;;32.80;38.10;;;;;;5078024;28;20380;-57
2021/06/02 08:00:32;;;;;;;8.40;3.70;;;33.00;36.30;;;;;;5081422;28;20376;-72
2021/06/02 08:02:58;;;;;;;8.73;3.90;;;32.40;37.40;;;;;;5086514;28;20387;-58
2021/06/02 08:05:24;;;;;;;6.70;3.60;;;32.90;38.00;;;;;;5076796;28;20400;-58
2021/06/02 08:07:49;;;;;;;7.27;3.53;;;33.30;36.70;;;;;;5081620;28;20863;-57
2021/06/02 08:10:17;;;;;;;7.90;3.60;;;33.50;37.80;;;;;;5075607;28;20378;-60
2021/06/02 08:12:43;;;;;;;6.20;3.30;;;34.10;36.10;;;;;;5071614;28;20574;-61
2021/06/02 08:15:10;;;;;;;5.85;3.20;;;34.70;35.10;;;;;;5078059;28;20402;-56
2021/06/02 08:17:37;;;;;;;6.23;3.30;;;33.80;36.50;;;;;;5079403;28;20473;-68
2021/06/02 08:20:06;;;;;;;6.80;3.22;;;33.40;35.70;;;;;;5063152;28;20398;-59
2021/06/02 08:22:31;;;;;;;9.13;3.53;;;33.30;36.30;;;;;;5083222;28;20393;-60
2021/06/02 08:24:57;;;;;;;6.65;3.05;;;32.50;36.40;;;;;;5081711;28;20382;-57
2021/06/02 08:27:23;;;;;;;7.60;3.60;;;32.90;36.90;;;;;;5076256;28;20786;-58
2021/06/02 08:29:53;;;;;;;8.40;3.40;;;33.90;36.50;;;;;;5077514;28;20471;-57
2021/06/02 08:32:19;;;;;;;7.20;3.30;;;34.40;35.80;;;;;;5079848;28;20415;-57
2021/06/02 08:34:45;;;;;;;7.00;3.40;;;35.40;34.50;;;;;;5076149;28;20952;-58
2021/06/02 08:37:13;;;;;;;7.18;3.40;;;35.60;33.60;;;;;;5074378;28;20374;-58
2021/06/02 08:39:39;;;;;;;8.25;3.50;;;35.60;33.00;;;;;;5077743;28;20384;-58
2021/06/02 08:42:05;;;;;;;6.25;3.30;;;36.10;33.50;;;;;;5075811;28;20399;-57
2021/06/02 08:44:32;;;;;;;7.38;3.30;;;36.30;32.60;;;;;;5078674;28;20392;-57
2021/06/02 08:47:00;;;;;;;8.47;3.37;;;36.40;32.20;;;;;;5076106;28;20394;-59
2021/06/02 08:49:26;;;;;;;7.50;3.53;;;35.70;32.70;;;;;;5077106;28;20850;-57
2021/06/02 08:51:52;;;;;;;8.63;3.90;;;35.40;32.40;;;;;;5078793;28;20409;-56
2021/06/02 08:54:19;;;;;;;7.80;3.50;;;35.60;32.60;;;;;;5078348;28;20415;-57
2021/06/02 08:56:45;;;;;;;8.27;3.80;;;35.90;31.80;;;;;;5076550;28;20396;-58
2021/06/02 08:59:11;;;;;;;7.57;3.50;;;36.60;31.30;;;;;;5075913;28;20393;-58
2021/06/02 09:01:37;;;;;;;9.70;3.70;;;36.60;31.70;;;;;;5078566;28;20390;-60
2021/06/02 09:04:05;;;;;;;7.00;3.40;;;36.10;32.50;;;;;;5074806;28;20902;-58
2021/06/02 09:06:32;;;;;;;7.40;3.22;;;36.40;32.30;;;;;;5076635;28;20943;-57
2021/06/02 09:09:00;;;;;;;7.63;3.03;;;35.30;31.60;;;;;;5076312;28;20372;-58
2021/06/02 09:11:25;;;;;;;6.10;2.90;;;36.30;31.60;;;;;;5078247;28;20382;-58
2021/06/02 09:13:51;;;;;;;7.75;3.33;;;37.00;30.60;;;;;;5075000;28;20415;-59
2021/06/02 09:16:27;;;;;;;8.40;3.30;;;36.80;31.00;;;;;;5078535;28;20382;-57
2021/06/02 09:19:01;;;;;;;10.67;2.90;;;36.70;30.40;;;;;;5073933;28;20410;-58
2021/06/02 09:21:28;;;;;;;9.40;3.60;;;37.10;29.20;;;;;;5080003;28;20411;-65
2021/06/02 09:23:55;;;;;;;5.50;2.70;;;37.40;28.40;;;;;;5074263;28;20384;-58
2021/06/02 09:26:30;;;;;;;8.38;2.83;;;37.90;27.20;;;;;;5076494;28;20880;-58
2021/06/02 09:29:03;;;;;;;6.00;3.15;;;38.20;26.20;;;;;;5056253;28;21207;-57
2021/06/02 09:31:30;;;;;;;7.00;2.78;;;38.10;25.80;;;;;;5074557;28;20392;-57
2021/06/02 09:33:59;;;;;;;5.50;2.60;;;37.30;26.90;;;;;;5073679;28;20395;-56
2021/06/02 09:36:39;;;;;;;7.80;2.90;;;37.60;25.90;;;;;;5079652;28;20396;-58
2021/06/02 09:39:16;;;;;;;5.60;2.70;;;37.00;26.00;;;;;;5077696;28;20429;-57
2021/06/02 09:41:47;;;;;;;6.50;2.50;;;36.50;26.90;;;;;;5066929;28;20479;-57
2021/06/02 09:44:13;;;;;;;8.32;3.00;;;35.40;27.70;;;;;;5069445;28;20394;-57
2021/06/02 09:47:04;;;;;;;6.25;2.60;;;34.50;27.80;;;;;;5074254;28;20459;-57
2021/06/02 09:49:51;;;;;;;7.00;2.27;;;34.10;27.90;;;;;;5057268;28;20422;-57
2021/06/02 09:52:18;;;;;;;6.73;2.60;;;34.60;26.60;;;;;;5068346;28;20442;-56
2021/06/02 09:54:45;;;;;;;6.20;2.92;;;34.10;26.40;;;;;;5077798;28;20414;-57
2021/06/02 09:57:15;;;;;;;5.10;2.30;;;33.90;27.10;;;;;;5074514;28;20399;-57
2021/06/02 09:59:58;;;;;;;6.55;2.90;;;34.60;28.20;;;;;;5081087;28;20395;-57
2021/06/02 10:02:24;;;;;;;7.00;2.87;;;35.20;28.00;;;;;;5072547;28;20391;-57
2021/06/02 10:05:07;;;;;;;6.93;2.70;;;36.30;27.00;;;;;;5071803;28;20850;-62
2021/06/02 10:07:35;;;;;;;9.25;2.50;;;34.00;27.50;;;;;;5077643;28;20414;-68
2021/06/02 10:10:11;;;;;;;6.00;2.80;;;34.10;28.10;;;;;;5074182;28;20440;-57
2021/06/02 10:12:38;;;;;;;8.30;2.90;;;34.30;27.80;;;;;;5080775;28;20882;-66
2021/06/02 10:15:05;;;;;;;5.93;2.75;;;34.70;27.80;;;;;;5079534;28;20411;-60
2021/06/02 10:17:36;;;;;;;7.10;2.80;;;34.90;28.00;;;;;;5075584;28;20398;-55
2021/06/02 10:20:12;;;;;;;6.17;2.90;;;35.00;28.00;;;;;;5080133;28;20398;-54
2021/06/02 10:22:43;;;;;;;7.80;3.10;;;35.00;27.50;;;;;;5080332;28;20396;-57
2021/06/02 10:25:10;;;;;;;8.10;2.63;;;35.40;27.70;;;;;;5063981;28;20501;-57
2021/06/02 10:27:36;;;;;;;8.60;3.00;;;34.70;27.90;;;;;;5076152;28;20968;-70
2021/06/02 10:30:05;;;;;;;6.07;2.78;;;33.90;28.60;;;;;;5057243;28;20396;-63
2021/06/02 10:32:32;;;;;;;7.10;3.50;;;32.50;29.20;;;;;;5078106;28;20491;-54
2021/06/02 10:34:58;;;;;;;6.70;2.80;;;31.70;30.50;;;;;;5080045;28;20427;-55
2021/06/02 10:37:24;;;;;;;5.40;2.60;;;31.20;32.00;;;;;;5078440;28;20396;-55
2021/06/02 10:39:55;;;;;;;8.85;2.58;;;30.20;32.60;;;;;;5077590;28;20387;-54
2021/06/02 10:42:38;;;;;;;6.50;3.20;;;29.90;33.10;;;;;;5076425;28;20393;-55
2021/06/02 10:45:59;;;;;;;8.15;3.45;;;29.90;32.80;;;;;;5077875;28;20409;-62
2021/06/02 10:48:46;;;;;;;7.05;3.60;;;29.80;32.90;;;;;;5029123;28;20420;-55
2021/06/02 10:51:31;;;;;;;7.57;3.50;;;29.70;33.20;;;;;;5080937;28;20416;-55
2021/06/02 10:54:17;;;;;;;6.72;3.60;;;29.50;33.10;;;;;;5081606;28;20413;-56
2021/06/02 10:56:59;;;;;;;6.72;2.80;;;29.10;33.30;;;;;;5076125;28;20423;-55
2021/06/02 10:59:35;;;;;;;7.50;2.83;;;29.00;33.60;;;;;;5058012;28;20404;-54
2021/06/02 11:02:08;;;;;;;6.40;3.20;;;29.50;33.90;;;;;;5074799;28;20469;-54
2021/06/02 11:04:38;;;;;;;5.80;2.97;;;29.90;32.50;;;;;;5064084;28;20891;-55
2021/06/02 11:07:18;;;;;;;6.70;2.95;;;30.40;33.00;;;;;;5063625;28;20395;-63
2021/06/02 11:09:58;;;;;;;5.82;3.08;;;30.40;31.50;;;;;;5068270;28;20394;-55
2021/06/02 11:12:52;;;;;;;6.93;3.60;;;30.20;30.80;;;;;;5060842;28;20548;-55
2021/06/02 11:15:21;;;;;;;8.60;3.10;;;30.40;30.50;;;;;;5049267;28;20539;-59
2021/06/02 11:18:06;;;;;;;5.73;2.80;;;30.00;30.50;;;;;;5079834;28;20498;-55
2021/06/02 11:20:43;;;;;;;9.03;3.50;;;30.20;31.10;;;;;;5064610;28;20390;-55
2021/06/02 11:23:11;;;;;;;11.60;4.40;;;30.40;30.50;;;;;;5075467;28;20795;-55
2021/06/02 11:25:38;;;;;;;6.50;2.60;;;30.60;30.70;;;;;;5080672;28;20449;-58
2021/06/02 11:28:05;;;;;;;7.20;2.75;;;30.40;30.00;;;;;;5057991;28;20455;-55
2021/06/02 11:30:31;;;;;;;6.35;2.70;;;30.00;30.50;;;;;;5080245;28;20396;-58
2021/06/02 11:32:59;;;;;;;6.63;2.80;;;29.70;31.30;;;;;;5080525;28;20387;-55
2021/06/02 11:36:17;;;;;;;5.53;2.50;;;29.50;31.10;;;;;;5083918;28;20459;-55
2021/06/02 11:38:43;;;;;;;7.03;2.40;;;29.30;31.30;;;;;;5043398;28;20400;-68
2021/06/02 11:41:11;;;;;;;6.88;3.00;;;29.40;30.80;;;;;;5065685;28;20425;-56
2021/06/02 11:43:37;;;;;;;7.32;2.60;;;29.50;31.50;;;;;;5070425;28;20397;-55
2021/06/02 11:46:03;;;;;;;7.03;3.17;;;29.90;31.30;;;;;;5070109;28;21121;-55
2021/06/02 11:48:32;;;;;;;7.30;2.90;;;29.90;31.60;;;;;;5076400;28;20885;-55
2021/06/02 11:51:00;;;;;;;8.93;2.83;;;30.10;30.90;;;;;;5088718;28;20501;-55
2021/06/02 11:53:37;;;;;;;6.95;2.50;;;30.40;31.00;;;;;;5078036;28;20379;-56
2021/06/02 11:56:02;;;;;;;6.20;2.60;;;30.20;31.70;;;;;;5090275;28;20512;-60
2021/06/02 11:58:28;;;;;;;7.53;2.30;;;30.20;32.40;;;;;;5080116;28;20480;-55
2021/06/02 12:00:54;;;;;;;6.27;2.57;;;30.40;31.20;;;;;;5071547;28;20473;-55
2021/06/02 12:03:19;;;;;;;5.63;2.30;;;30.40;31.70;;;;;;5070342;28;20434;-56
2021/06/02 12:05:46;;;;;;;5.90;2.60;;;30.30;31.50;;;;;;5070341;28;20909;-55
2021/06/02 12:08:14;;;;;;;6.80;2.60;;;30.40;30.70;;;;;;5077960;28;20387;-54
2021/06/02 12:10:44;;;;;;;7.68;3.15;;;30.30;30.50;;;;;;5070262;28;20399;-56
2021/06/02 12:13:19;;;;;;;5.20;2.38;;;30.10;30.50;;;;;;5058933;28;20400;-51
2021/06/02 12:15:57;;;;;;;5.90;2.30;;;30.00;31.00;;;;;;5077664;28;20490;-52
2021/06/02 12:18:35;;;;;;;6.10;2.60;;;29.90;31.50;;;;;;5069985;28;20449;-52
2021/06/02 12:21:28;;;;;;;7.70;2.50;;;29.30;31.60;;;;;;5083298;28;20565;-52
2021/06/02 12:24:06;;;;;;;8.50;2.17;;;29.50;31.90;;;;;;5075133;28;20437;-52
2021/06/02 12:26:40;;;;;;;5.50;2.50;;;29.50;31.70;;;;;;5069494;28;20426;-52
2021/06/02 12:29:11;;;;;;;7.90;2.60;;;29.40;31.70;;;;;;5053712;28;20727;-52
2021/06/02 12:31:41;;;;;;;5.72;2.47;;;29.50;31.10;;;;;;5079608;28;20382;-52
2021/06/02 12:34:17;;;;;;;6.50;2.50;;;29.20;32.60;;;;;;5077869;28;20417;-51
2021/06/02 12:36:53;;;;;;;5.85;3.10;;;29.50;32.30;;;;;;5074952;28;20394;-59
2021/06/02 12:39:21;;;;;;;8.38;2.88;;;29.70;32.30;;;;;;5076049;28;20404;-55
2021/06/02 12:41:49;;;;;;;7.05;2.60;;;30.00;31.80;;;;;;5077766;28;20441;-54
2021/06/02 12:44:20;;;;;;;7.00;2.50;;;30.10;31.90;;;;;;5074357;28;20396;-53
2021/06/02 12:47:05;;;;;;;6.85;2.92;;;30.20;31.30;;;;;;5072775;28;20410;-57
2021/06/02 12:49:31;;;;;;;5.97;3.00;;;29.70;32.00;;;;;;5068549;28;20478;-52
2021/06/02 12:51:58;;;;;;;5.82;2.50;;;29.70;32.60;;;;;;5085162;28;20406;-52
2021/06/02 12:54:29;;;;;;;5.55;2.40;;;29.80;31.50;;;;;;5089378;28;20402;-53
2021/06/02 12:56:55;;;;;;;7.10;2.95;;;29.90;31.60;;;;;;5088792;28;20463;-54
2021/06/02 12:59:27;;;;;;;6.30;2.40;;;30.10;31.90;;;;;;5089671;28;20751;-53
2021/06/02 13:02:00;;;;;;;5.30;2.30;;;28.80;31.00;;;;;;5072621;28;20384;-53
2021/06/02 13:04:26;;;;;;;5.70;2.55;;;30.70;31.40;;;;;;5069578;28;20390;-52
2021/06/02 13:06:53;;;;;;;5.50;2.50;;;30.80;31.00;;;;;;5068512;28;20510;-53
2021/06/02 13:09:21;;;;;;;6.30;2.55;;;30.60;31.40;;;;;;5069521;28;20379;-53
2021/06/02 13:11:47;;;;;;;6.80;2.30;;;30.50;31.70;;;;;;5068531;28;20410;-59
2021/06/02 13:14:13;;;;;;;6.30;2.35;;;30.00;31.90;;;;;;5069168;28;20877;-55
2021/06/02 13:16:55;;;;;;;5.45;2.60;;;29.70;32.40;;;;;;5069256;28;20368;-53
2021/06/02 13:19:51;;;;;;;5.10;2.30;;;29.80;32.40;;;;;;5069480;28;20396;-52
2021/06/02 13:22:25;;;;;;;6.70;2.70;;;29.30;33.00;;;;;;5048103;28;20422;-52
2021/06/02 13:25:00;;;;;;;5.22;2.30;;;29.30;33.70;;;;;;5068289;28;20453;-53
2021/06/02 13:27:25;;;;;;;6.18;2.70;;;29.50;33.20;;;;;;5069137;28;20903;-56